Current Conditions
Clear
Conditions



Pressure
1016.26 (kPa) - 30.01 (inHG)
Visibility

14.5 (km) - 9.0 (miles)
   Temperature
18  °C
64°F
13  °C
Dewpoint
73  %
 Humidity
   Wind Speed
14  km/h
8  kts
9  mph
4.0  m/s
   Wind Direction
 70°
East North
East
   Airport Data
CYTZ
Location Billy Bishop Toronto City Centre Airport 37 km (23mi)
Metar :CYTZ 121700Z AUTO 07008KT 9SM CLR 18/13 A3001 RMK SLP164 DENSITY ALT 600FT
Wed 12th June 17:00 pm
   Raw Metar Info
Raw METAR is the most common format in the world for the transmission of observational weather data. It is highly standardized through the International Civil Aviation Organization (ICAO), which allows it to be understood throughout most of the world.
   API Info
Data Provided by
https://www.checkwx.com/weather/
   © Info
CSS/SVG/PHP scripts were developed by weather34.com for use in the weather34 template © 2015-2024

Guide Info provided by Metar-Wikipedia